Airfield :
LOGIN :

Register | Disclaimer

   EN    FR    IT 

 










Legend :    VFR   Marginal VFR   IFR   Intensive IFR   Very Intensive IFR
Visi :
Ceiling :
>= 8 km
>= 3000ft
5 to 8 km
1000 to 3000 ft
1500m to 5 km
500 to 1000 ft
800 to 1500m
200 to 500 ft
< 800m
< 200 ft
Symbols :   Thunderstorms  Fog  Heavy snow  Heavy precipitations  Wind > 20 kt
SIGMETs :     Misc.  Thunderstorms  Icing  Turbulence  Mountain Waves  Volcanic Ashes







- Airport Elevation : 325 ft
- IATA code : BES
- Download approach charts


LFRB - Brest

CURRENT METAR :
  • 231930Z AUTO 03003KT 9999 -RA FEW049 BKN062 BKN074 07/05 Q1012 TEMPO SHRA SCT018TCU

EXPIRED METARs :
  • 231900Z AUTO 05004KT 9999 FEW049 BKN072 OVC084 07/05 Q1011 TEMPO SHRA SCT018TCU
  • 231830Z AUTO 03004KT CAVOK 07/05 Q1011 TEMPO SHRA SCT018TCU
  • 231800Z AUTO 03005KT CAVOK 07/05 Q1010 TEMPO SHRA SCT010 BKN016TCU
  • 231730Z AUTO 04007KT 9999 FEW013 BKN096 BKN190 08/05 Q1010 TEMPO SHRA SCT010 BKN016TCU
  • 231700Z AUTO 04007KT 9999 FEW018/// SCT068/// OVC100/// ///TCU 08/06 Q1010 TEMPO BKN016CB BECMG 4000 RADZ

TAF AMD TAF LFRB
Valid from the 23 at 18:00 until the 25 at 00:00 UTC


231801Z 2318/2424 04007KT 9999 SCT018 BKN050
TEMPO 2318/2321 SHRA SCT018TCU
BECMG 2321/2324 SCT020
TEMPO 2403/2408 3000 BR
PROB30
TEMPO 2403/2408 0800 FG BKN002
BECMG 2415/2418 OVC014
ATIS : +33 2 98 32 02 71
No reported NOTAMs for that airfield.



MET'MAP, your aeronautical weather chart ! - Copyright ORBIFLY December 2007 - Disclaimer

ORBIFLY MET'MAP TEAM :

Programming & Development : Alexandra Zaïnal
Concept & Development : Baudouin d'Aumeries
Co-Development & Prog : Marc-Olivier Méhu
Technical & hardware support : Manuel Goepfert

Contact : metmap@orbifly.com




SOURCES & CREDITS :

   NOAA